sensor_id;sensor_type;location;lat;lon;timestamp;P1;durP1;ratioP1;P2;durP2;ratioP2
44536;SDS011;30245;51.966;6.292;2023-01-29T00:01:13;23.10;;;11.40;;
44536;SDS011;30245;51.966;6.292;2023-01-29T00:03:38;16.20;;;10.10;;
44536;SDS011;30245;51.966;6.292;2023-01-29T00:06:04;13.37;;;9.00;;
44536;SDS011;30245;51.966;6.292;2023-01-29T00:08:35;15.23;;;9.48;;
44536;SDS011;30245;51.966;6.292;2023-01-29T00:11:05;16.20;;;10.03;;
44536;SDS011;30245;51.966;6.292;2023-01-29T00:13:32;14.00;;;9.67;;
44536;SDS011;30245;51.966;6.292;2023-01-29T00:16:00;15.70;;;9.32;;
44536;SDS011;30245;51.966;6.292;2023-01-29T00:18:26;15.73;;;9.83;;
44536;SDS011;30245;51.966;6.292;2023-01-29T00:20:53;15.47;;;10.07;;
44536;SDS011;30245;51.966;6.292;2023-01-29T00:23:19;15.30;;;9.43;;
44536;SDS011;30245;51.966;6.292;2023-01-29T00:25:45;16.23;;;9.37;;
44536;SDS011;30245;51.966;6.292;2023-01-29T00:28:12;15.07;;;9.23;;
44536;SDS011;30245;51.966;6.292;2023-01-29T00:30:39;16.03;;;9.43;;
44536;SDS011;30245;51.966;6.292;2023-01-29T00:33:04;13.93;;;10.07;;
44536;SDS011;30245;51.966;6.292;2023-01-29T00:35:31;12.03;;;8.63;;
44536;SDS011;30245;51.966;6.292;2023-01-29T00:37:56;12.87;;;7.90;;
44536;SDS011;30245;51.966;6.292;2023-01-29T00:40:22;15.33;;;8.83;;
44536;SDS011;30245;51.966;6.292;2023-01-29T00:42:49;16.50;;;9.83;;
44536;SDS011;30245;51.966;6.292;2023-01-29T00:45:34;16.40;;;10.47;;
44536;SDS011;30245;51.966;6.292;2023-01-29T00:48:01;14.97;;;9.93;;
44536;SDS011;30245;51.966;6.292;2023-01-29T00:52:55;15.53;;;8.50;;
44536;SDS011;30245;51.966;6.292;2023-01-29T00:55:23;14.90;;;9.07;;
44536;SDS011;30245;51.966;6.292;2023-01-29T00:57:49;19.48;;;11.27;;
44536;SDS011;30245;51.966;6.292;2023-01-29T01:00:16;14.70;;;9.57;;
44536;SDS011;30245;51.966;6.292;2023-01-29T01:02:43;15.75;;;9.60;;
44536;SDS011;30245;51.966;6.292;2023-01-29T01:05:27;18.00;;;10.60;;
44536;SDS011;30245;51.966;6.292;2023-01-29T01:07:54;16.67;;;10.03;;
44536;SDS011;30245;51.966;6.292;2023-01-29T01:10:22;14.30;;;9.50;;
44536;SDS011;30245;51.966;6.292;2023-01-29T01:15:23;16.47;;;9.83;;
44536;SDS011;30245;51.966;6.292;2023-01-29T01:17:50;17.63;;;11.35;;
44536;SDS011;30245;51.966;6.292;2023-01-29T01:20:17;15.77;;;9.57;;
44536;SDS011;30245;51.966;6.292;2023-01-29T01:22:43;15.10;;;9.23;;
44536;SDS011;30245;51.966;6.292;2023-01-29T01:25:09;15.57;;;9.70;;
44536;SDS011;30245;51.966;6.292;2023-01-29T01:27:34;19.13;;;11.03;;
44536;SDS011;30245;51.966;6.292;2023-01-29T01:30:05;15.17;;;9.17;;
44536;SDS011;30245;51.966;6.292;2023-01-29T01:32:36;15.57;;;9.50;;
44536;SDS011;30245;51.966;6.292;2023-01-29T01:35:02;18.97;;;11.80;;
44536;SDS011;30245;51.966;6.292;2023-01-29T01:37:27;15.20;;;9.83;;
44536;SDS011;30245;51.966;6.292;2023-01-29T01:39:53;18.43;;;9.67;;
44536;SDS011;30245;51.966;6.292;2023-01-29T01:42:21;13.93;;;8.63;;
44536;SDS011;30245;51.966;6.292;2023-01-29T01:47:46;16.10;;;9.17;;
44536;SDS011;30245;51.966;6.292;2023-01-29T01:50:12;13.27;;;7.90;;
44536;SDS011;30245;51.966;6.292;2023-01-29T01:52:42;14.47;;;9.90;;
44536;SDS011;30245;51.966;6.292;2023-01-29T01:55:11;15.33;;;8.73;;
44536;SDS011;30245;51.966;6.292;2023-01-29T01:57:40;14.27;;;9.30;;
44536;SDS011;30245;51.966;6.292;2023-01-29T02:00:10;13.50;;;8.60;;
44536;SDS011;30245;51.966;6.292;2023-01-29T02:02:40;16.90;;;10.47;;
44536;SDS011;30245;51.966;6.292;2023-01-29T02:05:27;13.87;;;8.50;;
44536;SDS011;30245;51.966;6.292;2023-01-29T02:08:17;17.30;;;9.95;;
44536;SDS011;30245;51.966;6.292;2023-01-29T02:11:08;14.20;;;7.80;;
44536;SDS011;30245;51.966;6.292;2023-01-29T02:13:33;13.77;;;8.63;;
44536;SDS011;30245;51.966;6.292;2023-01-29T02:16:00;15.53;;;8.57;;
44536;SDS011;30245;51.966;6.292;2023-01-29T02:18:25;13.40;;;9.03;;
44536;SDS011;30245;51.966;6.292;2023-01-29T02:23:43;12.43;;;7.87;;
44536;SDS011;30245;51.966;6.292;2023-01-29T02:29:22;12.80;;;8.27;;
44536;SDS011;30245;51.966;6.292;2023-01-29T02:34:51;13.43;;;8.90;;
44536;SDS011;30245;51.966;6.292;2023-01-29T02:37:42;13.07;;;7.87;;
44536;SDS011;30245;51.966;6.292;2023-01-29T02:45:31;14.60;;;8.70;;
44536;SDS011;30245;51.966;6.292;2023-01-29T02:48:08;19.23;;;10.63;;
44536;SDS011;30245;51.966;6.292;2023-01-29T02:56:08;16.73;;;10.47;;
44536;SDS011;30245;51.966;6.292;2023-01-29T02:58:38;19.77;;;11.67;;
44536;SDS011;30245;51.966;6.292;2023-01-29T03:01:17;17.20;;;9.60;;
44536;SDS011;30245;51.966;6.292;2023-01-29T03:03:52;16.13;;;10.40;;
44536;SDS011;30245;51.966;6.292;2023-01-29T03:06:21;18.93;;;11.43;;
44536;SDS011;30245;51.966;6.292;2023-01-29T03:08:53;19.00;;;11.80;;
44536;SDS011;30245;51.966;6.292;2023-01-29T03:11:29;15.53;;;9.93;;
44536;SDS011;30245;51.966;6.292;2023-01-29T03:14:01;14.73;;;10.10;;
44536;SDS011;30245;51.966;6.292;2023-01-29T03:19:04;17.50;;;10.17;;
44536;SDS011;30245;51.966;6.292;2023-01-29T03:21:40;17.33;;;10.30;;
44536;SDS011;30245;51.966;6.292;2023-01-29T03:30:27;19.27;;;11.67;;
44536;SDS011;30245;51.966;6.292;2023-01-29T03:33:14;15.77;;;9.13;;
44536;SDS011;30245;51.966;6.292;2023-01-29T03:36:16;14.70;;;8.67;;
44536;SDS011;30245;51.966;6.292;2023-01-29T03:38:37;16.13;;;9.53;;
44536;SDS011;30245;51.966;6.292;2023-01-29T03:41:04;16.83;;;10.73;;
44536;SDS011;30245;51.966;6.292;2023-01-29T03:47:03;17.77;;;11.27;;
44536;SDS011;30245;51.966;6.292;2023-01-29T03:49:36;16.23;;;9.63;;
44536;SDS011;30245;51.966;6.292;2023-01-29T03:52:30;14.03;;;8.23;;
44536;SDS011;30245;51.966;6.292;2023-01-29T03:55:02;15.03;;;10.03;;
44536;SDS011;30245;51.966;6.292;2023-01-29T03:57:36;15.50;;;9.57;;
44536;SDS011;30245;51.966;6.292;2023-01-29T04:00:07;15.87;;;9.23;;
44536;SDS011;30245;51.966;6.292;2023-01-29T04:02:49;16.47;;;9.60;;
44536;SDS011;30245;51.966;6.292;2023-01-29T04:05:19;15.73;;;10.57;;
44536;SDS011;30245;51.966;6.292;2023-01-29T04:07:47;20.50;;;11.47;;
44536;SDS011;30245;51.966;6.292;2023-01-29T04:10:18;15.30;;;9.63;;
44536;SDS011;30245;51.966;6.292;2023-01-29T04:12:58;16.47;;;9.50;;
44536;SDS011;30245;51.966;6.292;2023-01-29T04:15:28;15.23;;;9.77;;
44536;SDS011;30245;51.966;6.292;2023-01-29T04:17:58;17.33;;;10.57;;
44536;SDS011;30245;51.966;6.292;2023-01-29T04:20:24;20.73;;;11.07;;
44536;SDS011;30245;51.966;6.292;2023-01-29T04:22:50;15.97;;;9.77;;
44536;SDS011;30245;51.966;6.292;2023-01-29T04:25:20;18.93;;;10.87;;
44536;SDS011;30245;51.966;6.292;2023-01-29T04:33:56;12.70;;;8.97;;
44536;SDS011;30245;51.966;6.292;2023-01-29T04:36:16;16.83;;;9.63;;
44536;SDS011;30245;51.966;6.292;2023-01-29T04:44:07;16.63;;;10.23;;
44536;SDS011;30245;51.966;6.292;2023-01-29T04:46:51;15.87;;;11.07;;
44536;SDS011;30245;51.966;6.292;2023-01-29T04:49:33;19.48;;;10.57;;
44536;SDS011;30245;51.966;6.292;2023-01-29T04:55:46;16.03;;;9.70;;
44536;SDS011;30245;51.966;6.292;2023-01-29T04:58:15;19.23;;;11.37;;
44536;SDS011;30245;51.966;6.292;2023-01-29T05:01:01;15.57;;;10.03;;
44536;SDS011;30245;51.966;6.292;2023-01-29T05:03:30;17.30;;;10.10;;
44536;SDS011;30245;51.966;6.292;2023-01-29T05:05:58;18.07;;;10.40;;
44536;SDS011;30245;51.966;6.292;2023-01-29T05:08:25;16.07;;;9.13;;
44536;SDS011;30245;51.966;6.292;2023-01-29T05:10:53;17.77;;;9.97;;
44536;SDS011;30245;51.966;6.292;2023-01-29T05:13:21;17.77;;;10.03;;
44536;SDS011;30245;51.966;6.292;2023-01-29T05:15:59;17.57;;;11.20;;
44536;SDS011;30245;51.966;6.292;2023-01-29T05:18:33;16.33;;;10.10;;
44536;SDS011;30245;51.966;6.292;2023-01-29T05:21:01;15.37;;;9.33;;
44536;SDS011;30245;51.966;6.292;2023-01-29T05:23:30;17.37;;;10.47;;
44536;SDS011;30245;51.966;6.292;2023-01-29T05:25:56;18.07;;;10.83;;
44536;SDS011;30245;51.966;6.292;2023-01-29T05:28:21;16.40;;;11.10;;
44536;SDS011;30245;51.966;6.292;2023-01-29T05:30:48;15.13;;;7.83;;
44536;SDS011;30245;51.966;6.292;2023-01-29T05:33:17;19.15;;;10.18;;
44536;SDS011;30245;51.966;6.292;2023-01-29T05:35:45;19.63;;;11.30;;
44536;SDS011;30245;51.966;6.292;2023-01-29T05:38:11;18.83;;;11.53;;
44536;SDS011;30245;51.966;6.292;2023-01-29T05:40:37;18.60;;;11.60;;
44536;SDS011;30245;51.966;6.292;2023-01-29T05:43:03;17.00;;;10.63;;
44536;SDS011;30245;51.966;6.292;2023-01-29T05:45:29;17.77;;;10.77;;
44536;SDS011;30245;51.966;6.292;2023-01-29T05:47:56;17.83;;;10.93;;
44536;SDS011;30245;51.966;6.292;2023-01-29T05:50:23;21.10;;;11.17;;
44536;SDS011;30245;51.966;6.292;2023-01-29T05:52:54;19.10;;;11.57;;
44536;SDS011;30245;51.966;6.292;2023-01-29T05:55:23;23.33;;;12.57;;
44536;SDS011;30245;51.966;6.292;2023-01-29T05:57:49;18.67;;;11.67;;
44536;SDS011;30245;51.966;6.292;2023-01-29T06:00:15;21.57;;;12.53;;
44536;SDS011;30245;51.966;6.292;2023-01-29T06:02:41;22.93;;;14.07;;
44536;SDS011;30245;51.966;6.292;2023-01-29T06:05:06;21.73;;;13.20;;
44536;SDS011;30245;51.966;6.292;2023-01-29T06:07:32;26.27;;;14.97;;
44536;SDS011;30245;51.966;6.292;2023-01-29T06:09:58;21.30;;;12.17;;
44536;SDS011;30245;51.966;6.292;2023-01-29T06:12:25;24.70;;;14.93;;
44536;SDS011;30245;51.966;6.292;2023-01-29T06:14:51;26.00;;;15.40;;
44536;SDS011;30245;51.966;6.292;2023-01-29T06:17:16;27.07;;;15.30;;
44536;SDS011;30245;51.966;6.292;2023-01-29T06:19:42;26.73;;;14.90;;
44536;SDS011;30245;51.966;6.292;2023-01-29T06:22:07;23.20;;;15.20;;
44536;SDS011;30245;51.966;6.292;2023-01-29T06:24:33;22.87;;;14.17;;
44536;SDS011;30245;51.966;6.292;2023-01-29T06:26:58;22.60;;;14.03;;
44536;SDS011;30245;51.966;6.292;2023-01-29T06:29:24;26.07;;;16.07;;
44536;SDS011;30245;51.966;6.292;2023-01-29T06:31:49;23.23;;;14.20;;
44536;SDS011;30245;51.966;6.292;2023-01-29T06:34:15;21.73;;;13.37;;
44536;SDS011;30245;51.966;6.292;2023-01-29T06:36:41;23.57;;;14.93;;
44536;SDS011;30245;51.966;6.292;2023-01-29T06:39:06;23.60;;;14.33;;
44536;SDS011;30245;51.966;6.292;2023-01-29T06:41:32;23.87;;;13.80;;
44536;SDS011;30245;51.966;6.292;2023-01-29T06:43:58;22.23;;;12.33;;
44536;SDS011;30245;51.966;6.292;2023-01-29T06:46:24;21.83;;;13.03;;
44536;SDS011;30245;51.966;6.292;2023-01-29T06:48:49;22.20;;;12.43;;
44536;SDS011;30245;51.966;6.292;2023-01-29T06:51:15;22.23;;;13.90;;
44536;SDS011;30245;51.966;6.292;2023-01-29T06:53:40;25.27;;;15.17;;
44536;SDS011;30245;51.966;6.292;2023-01-29T06:56:06;23.60;;;13.33;;
44536;SDS011;30245;51.966;6.292;2023-01-29T06:58:35;23.50;;;13.87;;
44536;SDS011;30245;51.966;6.292;2023-01-29T07:01:05;26.47;;;15.80;;
44536;SDS011;30245;51.966;6.292;2023-01-29T07:03:32;24.27;;;14.20;;
44536;SDS011;30245;51.966;6.292;2023-01-29T07:05:58;28.03;;;15.27;;
44536;SDS011;30245;51.966;6.292;2023-01-29T07:08:24;28.73;;;16.97;;
44536;SDS011;30245;51.966;6.292;2023-01-29T07:10:49;24.50;;;13.93;;
44536;SDS011;30245;51.966;6.292;2023-01-29T07:13:15;25.30;;;16.03;;
44536;SDS011;30245;51.966;6.292;2023-01-29T07:15:40;24.20;;;15.07;;
44536;SDS011;30245;51.966;6.292;2023-01-29T07:18:07;24.50;;;14.57;;
44536;SDS011;30245;51.966;6.292;2023-01-29T07:20:37;27.20;;;15.23;;
44536;SDS011;30245;51.966;6.292;2023-01-29T07:23:04;28.30;;;16.97;;
44536;SDS011;30245;51.966;6.292;2023-01-29T07:25:30;22.83;;;16.13;;
44536;SDS011;30245;51.966;6.292;2023-01-29T07:27:58;29.00;;;15.97;;
44536;SDS011;30245;51.966;6.292;2023-01-29T07:30:24;25.57;;;16.30;;
44536;SDS011;30245;51.966;6.292;2023-01-29T07:32:50;26.27;;;14.97;;
44536;SDS011;30245;51.966;6.292;2023-01-29T07:35:15;23.03;;;14.30;;
44536;SDS011;30245;51.966;6.292;2023-01-29T07:37:41;27.80;;;15.37;;
44536;SDS011;30245;51.966;6.292;2023-01-29T07:40:07;22.67;;;13.63;;
44536;SDS011;30245;51.966;6.292;2023-01-29T07:42:37;24.57;;;14.83;;
44536;SDS011;30245;51.966;6.292;2023-01-29T07:45:04;26.17;;;14.33;;
44536;SDS011;30245;51.966;6.292;2023-01-29T07:47:30;22.17;;;12.60;;
44536;SDS011;30245;51.966;6.292;2023-01-29T07:49:56;33.40;;;16.77;;
44536;SDS011;30245;51.966;6.292;2023-01-29T07:52:21;21.27;;;14.20;;
44536;SDS011;30245;51.966;6.292;2023-01-29T07:54:47;22.50;;;13.60;;
44536;SDS011;30245;51.966;6.292;2023-01-29T07:57:12;25.40;;;13.93;;
44536;SDS011;30245;51.966;6.292;2023-01-29T07:59:38;22.27;;;12.17;;
44536;SDS011;30245;51.966;6.292;2023-01-29T08:02:04;23.07;;;12.23;;
44536;SDS011;30245;51.966;6.292;2023-01-29T08:04:29;19.97;;;13.27;;
44536;SDS011;30245;51.966;6.292;2023-01-29T08:06:55;23.10;;;14.70;;
44536;SDS011;30245;51.966;6.292;2023-01-29T08:09:20;22.77;;;13.83;;
44536;SDS011;30245;51.966;6.292;2023-01-29T08:11:46;23.63;;;14.33;;
44536;SDS011;30245;51.966;6.292;2023-01-29T08:14:11;21.97;;;12.73;;
44536;SDS011;30245;51.966;6.292;2023-01-29T08:16:37;22.23;;;13.23;;
44536;SDS011;30245;51.966;6.292;2023-01-29T08:19:02;25.40;;;14.80;;
44536;SDS011;30245;51.966;6.292;2023-01-29T08:21:28;28.90;;;15.80;;
44536;SDS011;30245;51.966;6.292;2023-01-29T08:23:54;26.47;;;15.90;;
44536;SDS011;30245;51.966;6.292;2023-01-29T08:26:19;29.53;;;16.40;;
44536;SDS011;30245;51.966;6.292;2023-01-29T08:28:45;33.27;;;16.47;;
44536;SDS011;30245;51.966;6.292;2023-01-29T08:31:17;24.90;;;15.87;;
44536;SDS011;30245;51.966;6.292;2023-01-29T08:33:46;25.70;;;15.70;;
44536;SDS011;30245;51.966;6.292;2023-01-29T08:36:12;24.60;;;15.13;;
44536;SDS011;30245;51.966;6.292;2023-01-29T08:38:37;27.70;;;16.03;;
44536;SDS011;30245;51.966;6.292;2023-01-29T08:41:03;21.77;;;14.27;;
44536;SDS011;30245;51.966;6.292;2023-01-29T08:43:29;22.60;;;14.57;;
44536;SDS011;30245;51.966;6.292;2023-01-29T08:45:55;22.27;;;14.27;;
44536;SDS011;30245;51.966;6.292;2023-01-29T08:48:20;23.33;;;13.93;;
44536;SDS011;30245;51.966;6.292;2023-01-29T08:50:46;24.50;;;13.87;;
44536;SDS011;30245;51.966;6.292;2023-01-29T08:53:12;20.57;;;12.83;;
44536;SDS011;30245;51.966;6.292;2023-01-29T08:55:38;23.03;;;12.87;;
44536;SDS011;30245;51.966;6.292;2023-01-29T08:58:05;24.60;;;13.47;;
44536;SDS011;30245;51.966;6.292;2023-01-29T09:00:32;22.73;;;13.13;;
44536;SDS011;30245;51.966;6.292;2023-01-29T09:02:58;23.33;;;13.17;;
44536;SDS011;30245;51.966;6.292;2023-01-29T09:05:25;26.33;;;16.80;;
44536;SDS011;30245;51.966;6.292;2023-01-29T09:07:51;24.00;;;14.10;;
44536;SDS011;30245;51.966;6.292;2023-01-29T09:10:17;28.83;;;15.17;;
44536;SDS011;30245;51.966;6.292;2023-01-29T09:12:43;29.00;;;15.20;;
44536;SDS011;30245;51.966;6.292;2023-01-29T09:15:09;22.20;;;13.67;;
44536;SDS011;30245;51.966;6.292;2023-01-29T09:17:35;21.83;;;13.43;;
44536;SDS011;30245;51.966;6.292;2023-01-29T09:20:00;24.23;;;14.53;;
44536;SDS011;30245;51.966;6.292;2023-01-29T09:22:27;23.77;;;14.13;;
44536;SDS011;30245;51.966;6.292;2023-01-29T09:24:52;26.70;;;14.80;;
44536;SDS011;30245;51.966;6.292;2023-01-29T09:27:18;24.20;;;14.50;;
44536;SDS011;30245;51.966;6.292;2023-01-29T09:29:43;22.53;;;15.30;;
44536;SDS011;30245;51.966;6.292;2023-01-29T09:32:09;22.67;;;12.90;;
44536;SDS011;30245;51.966;6.292;2023-01-29T09:34:34;24.80;;;13.17;;
44536;SDS011;30245;51.966;6.292;2023-01-29T09:37:00;19.03;;;11.93;;
44536;SDS011;30245;51.966;6.292;2023-01-29T09:39:25;23.37;;;14.57;;
44536;SDS011;30245;51.966;6.292;2023-01-29T09:41:59;23.70;;;13.43;;
44536;SDS011;30245;51.966;6.292;2023-01-29T09:47:48;20.40;;;11.53;;
44536;SDS011;30245;51.966;6.292;2023-01-29T09:55:49;18.20;;;12.75;;
44536;SDS011;30245;51.966;6.292;2023-01-29T09:58:20;22.73;;;13.63;;
44536;SDS011;30245;51.966;6.292;2023-01-29T10:03:54;18.37;;;11.43;;
44536;SDS011;30245;51.966;6.292;2023-01-29T10:12:17;21.03;;;11.43;;
44536;SDS011;30245;51.966;6.292;2023-01-29T10:20:18;25.03;;;14.07;;
44536;SDS011;30245;51.966;6.292;2023-01-29T10:23:14;22.70;;;13.07;;
44536;SDS011;30245;51.966;6.292;2023-01-29T10:25:50;24.57;;;13.63;;
44536;SDS011;30245;51.966;6.292;2023-01-29T10:30:44;20.33;;;12.90;;
44536;SDS011;30245;51.966;6.292;2023-01-29T10:33:16;22.37;;;13.20;;
44536;SDS011;30245;51.966;6.292;2023-01-29T10:35:48;17.93;;;11.23;;
44536;SDS011;30245;51.966;6.292;2023-01-29T10:38:36;20.57;;;12.80;;
44536;SDS011;30245;51.966;6.292;2023-01-29T10:44:07;23.87;;;13.03;;
44536;SDS011;30245;51.966;6.292;2023-01-29T10:47:06;19.53;;;12.03;;
44536;SDS011;30245;51.966;6.292;2023-01-29T10:49:55;19.30;;;11.60;;
44536;SDS011;30245;51.966;6.292;2023-01-29T11:00:39;19.70;;;12.33;;
44536;SDS011;30245;51.966;6.292;2023-01-29T11:05:42;20.50;;;12.37;;
44536;SDS011;30245;51.966;6.292;2023-01-29T11:08:17;21.37;;;12.27;;
44536;SDS011;30245;51.966;6.292;2023-01-29T11:13:37;24.27;;;15.37;;
44536;SDS011;30245;51.966;6.292;2023-01-29T11:16:07;22.00;;;12.90;;
44536;SDS011;30245;51.966;6.292;2023-01-29T11:18:53;17.90;;;12.00;;
44536;SDS011;30245;51.966;6.292;2023-01-29T11:21:24;17.30;;;12.03;;
44536;SDS011;30245;51.966;6.292;2023-01-29T11:26:51;20.67;;;13.38;;
44536;SDS011;30245;51.966;6.292;2023-01-29T11:37:43;22.73;;;13.90;;
44536;SDS011;30245;51.966;6.292;2023-01-29T11:42:56;20.03;;;13.83;;
44536;SDS011;30245;51.966;6.292;2023-01-29T11:45:52;17.37;;;12.93;;
44536;SDS011;30245;51.966;6.292;2023-01-29T11:48:20;22.73;;;13.20;;
44536;SDS011;30245;51.966;6.292;2023-01-29T11:50:54;20.77;;;14.03;;
44536;SDS011;30245;51.966;6.292;2023-01-29T11:56:01;18.17;;;13.53;;
44536;SDS011;30245;51.966;6.292;2023-01-29T11:58:39;19.40;;;12.53;;
44536;SDS011;30245;51.966;6.292;2023-01-29T12:01:06;19.93;;;14.27;;
44536;SDS011;30245;51.966;6.292;2023-01-29T12:03:41;23.07;;;15.23;;
44536;SDS011;30245;51.966;6.292;2023-01-29T12:06:22;21.23;;;14.60;;
44536;SDS011;30245;51.966;6.292;2023-01-29T12:08:56;21.17;;;13.37;;
44536;SDS011;30245;51.966;6.292;2023-01-29T12:11:30;21.50;;;14.23;;
44536;SDS011;30245;51.966;6.292;2023-01-29T12:14:00;21.17;;;13.47;;
44536;SDS011;30245;51.966;6.292;2023-01-29T12:16:38;18.67;;;13.13;;
44536;SDS011;30245;51.966;6.292;2023-01-29T12:22:21;21.10;;;13.50;;
44536;SDS011;30245;51.966;6.292;2023-01-29T12:24:59;18.67;;;12.43;;
44536;SDS011;30245;51.966;6.292;2023-01-29T12:27:47;20.20;;;12.52;;
44536;SDS011;30245;51.966;6.292;2023-01-29T12:30:35;21.57;;;12.87;;
44536;SDS011;30245;51.966;6.292;2023-01-29T12:33:47;19.67;;;13.63;;
44536;SDS011;30245;51.966;6.292;2023-01-29T12:38:55;23.53;;;14.23;;
44536;SDS011;30245;51.966;6.292;2023-01-29T12:43:55;20.10;;;14.10;;
44536;SDS011;30245;51.966;6.292;2023-01-29T12:46:29;19.27;;;13.07;;
44536;SDS011;30245;51.966;6.292;2023-01-29T12:49:02;22.40;;;14.50;;
44536;SDS011;30245;51.966;6.292;2023-01-29T12:51:36;20.67;;;13.60;;
44536;SDS011;30245;51.966;6.292;2023-01-29T12:54:08;17.60;;;11.63;;
44536;SDS011;30245;51.966;6.292;2023-01-29T12:56:41;18.13;;;12.23;;
44536;SDS011;30245;51.966;6.292;2023-01-29T12:59:16;16.03;;;10.73;;
44536;SDS011;30245;51.966;6.292;2023-01-29T13:01:48;22.93;;;13.97;;
44536;SDS011;30245;51.966;6.292;2023-01-29T13:04:39;20.77;;;14.33;;
44536;SDS011;30245;51.966;6.292;2023-01-29T13:07:16;17.90;;;12.60;;
44536;SDS011;30245;51.966;6.292;2023-01-29T13:09:49;20.95;;;12.57;;
44536;SDS011;30245;51.966;6.292;2023-01-29T13:12:19;24.93;;;15.83;;
44536;SDS011;30245;51.966;6.292;2023-01-29T13:14:48;17.48;;;14.35;;
44536;SDS011;30245;51.966;6.292;2023-01-29T13:23:00;20.37;;;13.47;;
44536;SDS011;30245;51.966;6.292;2023-01-29T13:25:48;20.60;;;14.43;;
44536;SDS011;30245;51.966;6.292;2023-01-29T13:28:19;21.33;;;15.23;;
44536;SDS011;30245;51.966;6.292;2023-01-29T13:33:34;18.77;;;13.43;;
44536;SDS011;30245;51.966;6.292;2023-01-29T13:35:59;22.27;;;16.13;;
44536;SDS011;30245;51.966;6.292;2023-01-29T13:38:29;20.40;;;15.53;;
44536;SDS011;30245;51.966;6.292;2023-01-29T13:41:04;28.50;;;18.67;;
44536;SDS011;30245;51.966;6.292;2023-01-29T13:43:40;23.20;;;16.60;;
44536;SDS011;30245;51.966;6.292;2023-01-29T13:46:14;23.73;;;18.03;;
44536;SDS011;30245;51.966;6.292;2023-01-29T13:48:43;23.53;;;16.90;;
44536;SDS011;30245;51.966;6.292;2023-01-29T13:51:13;25.83;;;14.87;;
44536;SDS011;30245;51.966;6.292;2023-01-29T13:53:54;21.40;;;15.70;;
44536;SDS011;30245;51.966;6.292;2023-01-29T13:58:53;26.58;;;18.25;;
44536;SDS011;30245;51.966;6.292;2023-01-29T14:06:55;27.13;;;18.37;;
44536;SDS011;30245;51.966;6.292;2023-01-29T14:17:11;27.07;;;17.70;;
44536;SDS011;30245;51.966;6.292;2023-01-29T14:19:50;26.80;;;19.43;;
44536;SDS011;30245;51.966;6.292;2023-01-29T14:22:27;27.27;;;18.47;;
44536;SDS011;30245;51.966;6.292;2023-01-29T14:24:56;25.07;;;18.50;;
44536;SDS011;30245;51.966;6.292;2023-01-29T14:27:25;22.33;;;17.10;;
44536;SDS011;30245;51.966;6.292;2023-01-29T14:29:57;29.67;;;19.47;;
44536;SDS011;30245;51.966;6.292;2023-01-29T14:32:25;27.33;;;19.50;;
44536;SDS011;30245;51.966;6.292;2023-01-29T14:35:01;30.53;;;22.07;;
44536;SDS011;30245;51.966;6.292;2023-01-29T14:37:32;28.47;;;20.70;;
44536;SDS011;30245;51.966;6.292;2023-01-29T14:42:35;28.23;;;18.20;;
44536;SDS011;30245;51.966;6.292;2023-01-29T14:47:53;28.87;;;19.37;;
44536;SDS011;30245;51.966;6.292;2023-01-29T15:01:47;29.93;;;19.53;;
44536;SDS011;30245;51.966;6.292;2023-01-29T15:04:29;33.23;;;22.13;;
44536;SDS011;30245;51.966;6.292;2023-01-29T15:07:05;33.33;;;20.53;;
44536;SDS011;30245;51.966;6.292;2023-01-29T15:09:56;31.37;;;21.97;;
44536;SDS011;30245;51.966;6.292;2023-01-29T15:20:27;27.80;;;18.05;;
44536;SDS011;30245;51.966;6.292;2023-01-29T15:23:00;26.13;;;16.70;;
44536;SDS011;30245;51.966;6.292;2023-01-29T15:25:36;27.93;;;17.97;;
44536;SDS011;30245;51.966;6.292;2023-01-29T15:28:13;33.33;;;18.97;;
44536;SDS011;30245;51.966;6.292;2023-01-29T15:30:39;30.17;;;19.63;;
44536;SDS011;30245;51.966;6.292;2023-01-29T15:33:07;29.40;;;20.07;;
44536;SDS011;30245;51.966;6.292;2023-01-29T15:35:37;26.37;;;18.40;;
44536;SDS011;30245;51.966;6.292;2023-01-29T15:38:14;29.80;;;19.50;;
44536;SDS011;30245;51.966;6.292;2023-01-29T15:40:53;28.33;;;18.40;;
44536;SDS011;30245;51.966;6.292;2023-01-29T15:45:50;29.90;;;21.53;;
44536;SDS011;30245;51.966;6.292;2023-01-29T15:48:18;32.40;;;20.67;;
44536;SDS011;30245;51.966;6.292;2023-01-29T15:50:47;26.17;;;16.70;;
44536;SDS011;30245;51.966;6.292;2023-01-29T15:53:16;27.70;;;17.60;;
44536;SDS011;30245;51.966;6.292;2023-01-29T15:55:46;28.90;;;19.73;;
44536;SDS011;30245;51.966;6.292;2023-01-29T15:58:16;32.10;;;17.83;;
44536;SDS011;30245;51.966;6.292;2023-01-29T16:00:48;29.03;;;19.00;;
44536;SDS011;30245;51.966;6.292;2023-01-29T16:03:15;33.00;;;19.27;;
44536;SDS011;30245;51.966;6.292;2023-01-29T16:05:45;26.27;;;18.53;;
44536;SDS011;30245;51.966;6.292;2023-01-29T16:08:11;27.87;;;18.33;;
44536;SDS011;30245;51.966;6.292;2023-01-29T16:10:39;26.37;;;19.20;;
44536;SDS011;30245;51.966;6.292;2023-01-29T16:13:07;29.67;;;19.87;;
44536;SDS011;30245;51.966;6.292;2023-01-29T16:15:58;31.27;;;19.40;;
44536;SDS011;30245;51.966;6.292;2023-01-29T16:18:30;31.10;;;19.33;;
44536;SDS011;30245;51.966;6.292;2023-01-29T16:21:13;30.67;;;20.00;;
44536;SDS011;30245;51.966;6.292;2023-01-29T16:26:07;30.10;;;17.40;;
44536;SDS011;30245;51.966;6.292;2023-01-29T16:28:40;26.20;;;17.67;;
44536;SDS011;30245;51.966;6.292;2023-01-29T16:31:06;30.53;;;17.87;;
44536;SDS011;30245;51.966;6.292;2023-01-29T16:33:35;29.60;;;18.75;;
44536;SDS011;30245;51.966;6.292;2023-01-29T16:36:03;27.40;;;18.33;;
44536;SDS011;30245;51.966;6.292;2023-01-29T16:38:38;30.87;;;19.33;;
44536;SDS011;30245;51.966;6.292;2023-01-29T16:43:52;29.63;;;19.60;;
44536;SDS011;30245;51.966;6.292;2023-01-29T16:49:47;28.57;;;17.63;;
44536;SDS011;30245;51.966;6.292;2023-01-29T16:51:53;30.27;;;18.47;;
44536;SDS011;30245;51.966;6.292;2023-01-29T16:56:50;30.37;;;18.27;;
44536;SDS011;30245;51.966;6.292;2023-01-29T16:59:19;29.40;;;17.87;;
44536;SDS011;30245;51.966;6.292;2023-01-29T17:01:51;28.67;;;18.03;;
44536;SDS011;30245;51.966;6.292;2023-01-29T17:04:19;23.85;;;17.42;;
44536;SDS011;30245;51.966;6.292;2023-01-29T17:06:46;30.40;;;20.33;;
44536;SDS011;30245;51.966;6.292;2023-01-29T17:09:18;32.05;;;21.30;;
44536;SDS011;30245;51.966;6.292;2023-01-29T17:11:46;35.30;;;21.37;;
44536;SDS011;30245;51.966;6.292;2023-01-29T17:14:16;34.33;;;20.30;;
44536;SDS011;30245;51.966;6.292;2023-01-29T17:16:51;28.73;;;18.63;;
44536;SDS011;30245;51.966;6.292;2023-01-29T17:19:18;27.27;;;17.83;;
44536;SDS011;30245;51.966;6.292;2023-01-29T17:21:45;28.23;;;17.13;;
44536;SDS011;30245;51.966;6.292;2023-01-29T17:24:11;25.87;;;17.67;;
44536;SDS011;30245;51.966;6.292;2023-01-29T17:26:36;26.13;;;16.63;;
44536;SDS011;30245;51.966;6.292;2023-01-29T17:29:03;33.97;;;18.53;;
44536;SDS011;30245;51.966;6.292;2023-01-29T17:31:28;30.83;;;20.03;;
44536;SDS011;30245;51.966;6.292;2023-01-29T17:33:54;28.43;;;17.73;;
44536;SDS011;30245;51.966;6.292;2023-01-29T17:36:19;31.60;;;19.63;;
44536;SDS011;30245;51.966;6.292;2023-01-29T17:38:45;30.80;;;17.87;;
44536;SDS011;30245;51.966;6.292;2023-01-29T17:41:13;31.47;;;17.83;;
44536;SDS011;30245;51.966;6.292;2023-01-29T17:43:51;30.20;;;19.07;;
44536;SDS011;30245;51.966;6.292;2023-01-29T17:46:16;34.00;;;18.03;;